x

Buoy I01 - Eastern Maine Shelf (44034) Wave Buoy

3:04 - Tue 25th Jul 2017 All times are EDT. -4 hours from GMT.

  • Sig Wave height 4.3ft
  • Peak Period 5s
  • Wind
    16mph, 18mph gusts
  • Sea Temp 49°f
  • Aire Temp 52°f
  • Sea Pressure 1014.1mb
  • Buoy I01 - Eastern Maine Shelf
  • Buoy I01 - Eastern Maine Shelf

More Historic Weather Station data

Upgrade to MSW Pro to gain access to the past 30 days of data for over 8000 Wavebouys and Weather Stations around the globe.

Join Pro

Comparision Forecast

View Surf forecast
   
mar 07/25 3:04 4.5ft 5s 16 18 mph 1014.1mb 49f 52f
2:04 4ft 5s 18 22 mph 1014.2mb 50f 52f
1:04 4ft 5s 20 25 mph 1013.7mb 50f 52f
12:04 4ft 5s 22 27 mph 1013.8mb 50f 52f
lun 07/24 11:04 3.5ft 5s 20 22 mph 1014.3mb 51f 52f
10:04 3.5ft 4s 18 22 mph 1015mb 51f 53f
9:04 2.5ft 4s 18 20 mph 1015.5mb 51f 53f
8:04 3ft 8s 20 22 mph 1015.2mb 51f 53f
7:04 2ft 5s 11 13 mph 1016.5mb 52f 53f
6:04 2ft 5s 13 13 mph 1015.6mb 52f 54f
4:04 2.5ft 8s 13 16 mph 1015.2mb 52f 54f
3:04 2ft 8s 9 9 mph 1015.9mb 52f 55f
2:04 2ft 8s 9 11 mph 1015.7mb 52f 55f
1:04 1.6ft 6s 9 11 mph 1015.9mb 53f 55f
12:04 2ft 8s 9 9 mph 1016.4mb 53f 54f
11:04 1.6ft 8s 9 9 mph 1016.8mb 53f 55f
10:04 1.3ft 8s 7 9 mph 1016.7mb 53f 55f
9:04 1.6ft 8s 7 9 mph 1016.3mb 53f 55f
8:04 1.3ft 8s 4 4 mph 1016.4mb 53f 55f
7:04 1.6ft 8s 4 4 mph 1015.8mb 53f 55f
6:04 1.3ft 8s 2 2 mph 1015.9mb 53f 54f
5:04 1.3ft 8s  -  2 mph 1015.4mb 53f 54f
4:04 1.6ft 11s 2 2 mph 1014.5mb 53f 54f
3:04 1.3ft 5s 4 4 mph 1014.3mb 53f 54f
2:04 1.3ft 11s 2 4 mph 1014.4mb 53f 55f
1:04 1.3ft 6s 7 7 mph 1014.1mb 53f 55f
12:04 1.3ft 11s 4 4 mph 1013.7mb 53f 55f
dom 07/23 11:04 1.6ft 6s 4 4 mph 1013.5mb 54f 56f
10:04 1.3ft 11s 2 4 mph 1013.2mb 54f 56f
9:04 1.6ft 6s 7 9 mph 1013mb 54f 57f
8:04 1.6ft 8s 9 9 mph 1012.2mb 54f 57f
7:04 1.6ft 8s 9 9 mph 1012.2mb 55f 58f
6:04 1.6ft 8s 9 9 mph 1011.8mb 54f 57f
5:04 2ft 8s 9 9 mph 1011.5mb 55f 58f
4:04 1.6ft 8s 9 9 mph 1011.3mb 53f 56f
3:04 2ft 11s 7 9 mph 1011.3mb 54f 56f
2:04 1.3ft 6s 4 7 mph 1011mb 55f 59f
1:04 1.3ft 6s 4 7 mph 1011mb 54f 58f
12:04 1.6ft 11s  -  2 mph 1010.9mb 55f 60f
11:04 1.3ft 6s 2 4 mph 1011.1mb 54f 57f
10:04  -   -  7 7 mph 1010.8mb 54f 57f
9:04 1.6ft 8s 9 9 mph 1010.8mb 54f 56f
8:04 1.6ft 8s 9 9 mph 1010.8mb 53f 56f
7:04 1ft 3s 9 11 mph 1010.5mb 53f 56f
6:04 1.6ft 8s 9 9 mph 1010.5mb 54f 56f
5:04 1.6ft 5s 11 11 mph 1010mb 54f 56f
4:04 2ft 8s 16 20 mph 1009.7mb 54f 58f
3:04 2ft 11s 16 18 mph 1009.4mb 54f 60f
2:04 1.6ft 6s 9 9 mph 1009.4mb 54f 59f
1:04 1.6ft 6s 9 11 mph 1008.9mb 53f 58f
12:04 1.6ft 11s 11 11 mph 1008.5mb 53f 60f
sáb 07/22 11:04 1.6ft 8s 9 11 mph 1008mb 52f 59f
10:04 1ft 4s 2 4 mph 1007.7mb 51f 56f
9:04 1.6ft 11s 9 11 mph 1007.3mb 52f 57f
8:04 1.3ft 6s 13 13 mph 1007.1mb 53f 60f
7:04 1.6ft 8s 9 11 mph 1007.1mb 53f 58f
6:04 2ft 5s 4 4 mph 1007.3mb 54f 58f
5:04 1.6ft 8s 4 7 mph 1007.4mb 54f 59f
4:04 2ft 8s 4 4 mph 1007.8mb 52f 58f
3:04 1.6ft 6s 9 11 mph 1008mb 53f 57f
2:04 2ft 6s 9 11 mph 1008.3mb 53f 58f
1:04 2ft 6s 9 11 mph 1008.8mb 53f 60f
12:04 2ft 6s 7 9 mph 1008.9mb 54f 60f
11:04 2ft 6s 7 7 mph 1008.8mb 53f 59f
10:04 1.6ft 6s 4 9 mph 1009.1mb 53f 59f
9:04 1.6ft 5s 7 9 mph 1009.1mb 53f 58f
8:04 2ft 6s 7 7 mph 1008.8mb 53f 59f
7:04 1ft 3s 7 7 mph 1008.4mb 54f 58f
6:04 2ft 6s 4 4 mph 1008.1mb 54f 58f
5:04 2ft 6s 2 4 mph 1008.3mb 54f 58f
4:04 2ft 6s 2 4 mph 1007.7mb 54f 58f
3:04 2ft 8s 4 4 mph 1007.3mb 51f 62f
2:04 1.6ft 8s 9 9 mph 1007mb 52f 60f
1:04 1.6ft 8s 9 9 mph 1006.4mb 52f 59f
12:04 1.6ft 6s 9 9 mph 1006.2mb 52f 58f
vie 07/21 11:04 2ft 6s 9 11 mph 1005.8mb 53f 56f
10:04 1.6ft 6s 9 9 mph 1006mb 52f 57f
9:04 1.6ft 6s 9 11 mph 1006.1mb 52f 57f
8:04 1.6ft 6s 11 11 mph 1005.7mb 52f 58f
7:04 1.6ft 6s 11 13 mph 1005.7mb 53f 57f
6:04 1.3ft 6s 11 13 mph 1005.8mb 53f 59f
5:04 1.3ft 5s 11 13 mph 1005.8mb 51f 59f
4:04 1.3ft 6s 9 9 mph 1006.5mb 53f 59f
3:04 1.6ft 8s 11 13 mph 1006.9mb 53f 58f
2:04 1ft 5s 9 11 mph 1007mb 53f 59f
1:04 1.3ft 5s 9 9 mph 1007.6mb 53f 59f
12:04 1.3ft 6s 7 9 mph 1008.1mb 53f 58f
11:04 0.7ft  -  7 7 mph 1008.3mb 52f 58f
10:04 1.6ft 11s 4 4 mph 1008.3mb 52f 58f
9:04 1.6ft 6s 4 7 mph 1008.1mb 53f 57f